sensor_id;sensor_type;location;lat;lon;timestamp;pressure;altitude;pressure_sealevel;temperature;humidity
31121;BME280;17770;45.966;13.632;2022-10-31T00:01:08;101102.75;;;21.81;57.93
31121;BME280;17770;45.966;13.632;2022-10-31T00:03:34;101102.75;;;21.81;58.15
31121;BME280;17770;45.966;13.632;2022-10-31T00:06:00;101113.25;;;21.81;57.97
31121;BME280;17770;45.966;13.632;2022-10-31T00:08:27;101105.38;;;21.81;57.95
31121;BME280;17770;45.966;13.632;2022-10-31T00:10:53;101114.16;;;21.80;57.89
31121;BME280;17770;45.966;13.632;2022-10-31T00:13:19;101111.53;;;21.80;57.79
31121;BME280;17770;45.966;13.632;2022-10-31T00:15:44;101107.25;;;21.79;58.07
31121;BME280;17770;45.966;13.632;2022-10-31T00:18:10;101106.28;;;21.80;57.77
31121;BME280;17770;45.966;13.632;2022-10-31T00:20:36;101109.00;;;21.79;57.83
31121;BME280;17770;45.966;13.632;2022-10-31T00:23:02;101112.59;;;21.78;58.01
31121;BME280;17770;45.966;13.632;2022-10-31T00:25:29;101100.38;;;21.77;58.08
31121;BME280;17770;45.966;13.632;2022-10-31T00:27:58;101114.44;;;21.76;57.99
31121;BME280;17770;45.966;13.632;2022-10-31T00:30:24;101116.13;;;21.77;57.89
31121;BME280;17770;45.966;13.632;2022-10-31T00:32:50;101111.06;;;21.74;58.09
31121;BME280;17770;45.966;13.632;2022-10-31T00:35:17;101114.53;;;21.74;57.97
31121;BME280;17770;45.966;13.632;2022-10-31T00:37:44;101113.69;;;21.74;57.91
31121;BME280;17770;45.966;13.632;2022-10-31T00:40:10;101111.81;;;21.76;57.72
31121;BME280;17770;45.966;13.632;2022-10-31T00:42:36;101111.91;;;21.74;57.91
31121;BME280;17770;45.966;13.632;2022-10-31T00:45:02;101121.66;;;21.72;57.91
31121;BME280;17770;45.966;13.632;2022-10-31T00:47:28;101116.41;;;21.72;57.76
31121;BME280;17770;45.966;13.632;2022-10-31T00:49:54;101116.50;;;21.71;58.05
31121;BME280;17770;45.966;13.632;2022-10-31T00:52:20;101115.66;;;21.70;57.82
31121;BME280;17770;45.966;13.632;2022-10-31T00:54:46;101107.78;;;21.70;57.86
31121;BME280;17770;45.966;13.632;2022-10-31T00:57:11;101114.84;;;21.70;57.70
31121;BME280;17770;45.966;13.632;2022-10-31T00:59:37;101107.03;;;21.68;57.81
31121;BME280;17770;45.966;13.632;2022-10-31T01:02:05;101103.47;;;21.69;57.81
31121;BME280;17770;45.966;13.632;2022-10-31T01:04:31;101111.44;;;21.68;57.90
31121;BME280;17770;45.966;13.632;2022-10-31T01:06:56;101102.72;;;21.67;57.78
31121;BME280;17770;45.966;13.632;2022-10-31T01:09:23;101100.19;;;21.66;57.95
31121;BME280;17770;45.966;13.632;2022-10-31T01:11:49;101100.09;;;21.67;57.69
31121;BME280;17770;45.966;13.632;2022-10-31T01:14:14;101094.09;;;21.65;57.69
31121;BME280;17770;45.966;13.632;2022-10-31T01:16:40;101101.88;;;21.67;57.60
31121;BME280;17770;45.966;13.632;2022-10-31T01:19:06;101091.47;;;21.65;57.71
31121;BME280;17770;45.966;13.632;2022-10-31T01:21:32;101092.53;;;21.63;57.95
31121;BME280;17770;45.966;13.632;2022-10-31T01:23:58;101094.28;;;21.62;57.84
31121;BME280;17770;45.966;13.632;2022-10-31T01:26:25;101096.00;;;21.63;57.94
31121;BME280;17770;45.966;13.632;2022-10-31T01:31:20;101090.81;;;21.62;57.71
31121;BME280;17770;45.966;13.632;2022-10-31T01:33:46;101093.44;;;21.62;57.92
31121;BME280;17770;45.966;13.632;2022-10-31T01:36:13;101091.75;;;21.61;57.88
31121;BME280;17770;45.966;13.632;2022-10-31T01:38:39;101096.16;;;21.60;57.84
31121;BME280;17770;45.966;13.632;2022-10-31T01:41:05;101086.63;;;21.59;57.67
31121;BME280;17770;45.966;13.632;2022-10-31T01:46:17;101090.91;;;21.60;57.89
31121;BME280;17770;45.966;13.632;2022-10-31T01:48:46;101089.25;;;21.59;57.59
31121;BME280;17770;45.966;13.632;2022-10-31T01:51:12;101085.88;;;21.57;57.87
31121;BME280;17770;45.966;13.632;2022-10-31T01:53:40;101091.97;;;21.58;57.63
31121;BME280;17770;45.966;13.632;2022-10-31T01:56:07;101089.44;;;21.56;57.63
31121;BME280;17770;45.966;13.632;2022-10-31T01:58:36;101087.72;;;21.55;57.78
31121;BME280;17770;45.966;13.632;2022-10-31T02:01:03;101095.63;;;21.55;57.65
31121;BME280;17770;45.966;13.632;2022-10-31T02:03:28;101089.53;;;21.55;57.89
31121;BME280;17770;45.966;13.632;2022-10-31T02:05:56;101094.78;;;21.55;57.74
31121;BME280;17770;45.966;13.632;2022-10-31T02:08:29;101091.31;;;21.54;57.89
31121;BME280;17770;45.966;13.632;2022-10-31T02:10:56;101089.72;;;21.52;57.67
31121;BME280;17770;45.966;13.632;2022-10-31T02:13:23;101092.25;;;21.53;57.46
31121;BME280;17770;45.966;13.632;2022-10-31T02:15:50;101085.31;;;21.52;57.80
31121;BME280;17770;45.966;13.632;2022-10-31T02:18:17;101091.50;;;21.51;57.71
31121;BME280;17770;45.966;13.632;2022-10-31T02:21:02;101081.00;;;21.51;57.57
31121;BME280;17770;45.966;13.632;2022-10-31T02:28:49;101082.88;;;21.49;57.72
31121;BME280;17770;45.966;13.632;2022-10-31T02:36:39;101082.13;;;21.47;57.70
31121;BME280;17770;45.966;13.632;2022-10-31T02:39:12;101081.22;;;21.48;57.62
31121;BME280;17770;45.966;13.632;2022-10-31T02:44:16;101083.84;;;21.48;57.49
31121;BME280;17770;45.966;13.632;2022-10-31T02:46:52;101087.38;;;21.47;57.65
31121;BME280;17770;45.966;13.632;2022-10-31T02:51:48;101090.97;;;21.46;57.56
31121;BME280;17770;45.966;13.632;2022-10-31T02:54:24;101081.38;;;21.45;57.46
31121;BME280;17770;45.966;13.632;2022-10-31T02:56:54;101084.94;;;21.44;57.37
31121;BME280;17770;45.966;13.632;2022-10-31T02:59:23;101082.31;;;21.44;57.38
31121;BME280;17770;45.966;13.632;2022-10-31T03:14:37;101081.56;;;21.42;57.68
31121;BME280;17770;45.966;13.632;2022-10-31T03:17:07;101083.38;;;21.42;57.36
31121;BME280;17770;45.966;13.632;2022-10-31T03:19:37;101079.03;;;21.41;57.74
31121;BME280;17770;45.966;13.632;2022-10-31T03:22:07;101091.31;;;21.40;57.61
31121;BME280;17770;45.966;13.632;2022-10-31T03:24:37;101079.16;;;21.39;57.44
31121;BME280;17770;45.966;13.632;2022-10-31T03:27:04;101082.72;;;21.38;57.64
31121;BME280;17770;45.966;13.632;2022-10-31T03:29:32;101078.28;;;21.39;57.23
31121;BME280;17770;45.966;13.632;2022-10-31T03:32:01;101087.97;;;21.38;57.48
31121;BME280;17770;45.966;13.632;2022-10-31T03:34:29;101082.81;;;21.37;57.49
31121;BME280;17770;45.966;13.632;2022-10-31T03:36:57;101090.69;;;21.37;57.17
31121;BME280;17770;45.966;13.632;2022-10-31T03:39:25;101093.31;;;21.37;57.21
31121;BME280;17770;45.966;13.632;2022-10-31T03:42:09;101089.09;;;21.34;57.52
31121;BME280;17770;45.966;13.632;2022-10-31T03:44:36;101092.47;;;21.36;57.07
31121;BME280;17770;45.966;13.632;2022-10-31T03:47:03;101094.34;;;21.34;57.37
31121;BME280;17770;45.966;13.632;2022-10-31T03:49:29;101091.72;;;21.34;57.26
31121;BME280;17770;45.966;13.632;2022-10-31T03:54:44;101095.28;;;21.33;57.38
31121;BME280;17770;45.966;13.632;2022-10-31T03:57:14;101093.47;;;21.34;57.33
31121;BME280;17770;45.966;13.632;2022-10-31T03:59:48;101090.97;;;21.32;57.39
31121;BME280;17770;45.966;13.632;2022-10-31T04:02:17;101104.94;;;21.33;57.32
31121;BME280;17770;45.966;13.632;2022-10-31T04:04:44;101097.16;;;21.31;57.10
31121;BME280;17770;45.966;13.632;2022-10-31T04:07:12;101102.41;;;21.31;57.28
31121;BME280;17770;45.966;13.632;2022-10-31T04:09:39;101101.56;;;21.31;57.17
31121;BME280;17770;45.966;13.632;2022-10-31T04:12:07;101102.50;;;21.30;57.08
31121;BME280;17770;45.966;13.632;2022-10-31T04:14:49;101105.22;;;21.28;57.22
31121;BME280;17770;45.966;13.632;2022-10-31T04:17:17;101102.59;;;21.28;57.28
31121;BME280;17770;45.966;13.632;2022-10-31T04:19:44;101112.16;;;21.29;57.22
31121;BME280;17770;45.966;13.632;2022-10-31T04:22:10;101099.97;;;21.28;57.22
31121;BME280;17770;45.966;13.632;2022-10-31T04:24:37;101100.06;;;21.27;57.07
31121;BME280;17770;45.966;13.632;2022-10-31T04:27:04;101106.16;;;21.27;57.27
31121;BME280;17770;45.966;13.632;2022-10-31T04:29:30;101107.94;;;21.27;57.25
31121;BME280;17770;45.966;13.632;2022-10-31T04:31:57;101105.31;;;21.27;57.51
31121;BME280;17770;45.966;13.632;2022-10-31T04:34:23;101101.84;;;21.26;57.40
31121;BME280;17770;45.966;13.632;2022-10-31T04:36:49;101104.47;;;21.26;57.58
31121;BME280;17770;45.966;13.632;2022-10-31T04:41:53;101101.84;;;21.26;57.45
31121;BME280;17770;45.966;13.632;2022-10-31T04:44:19;101103.63;;;21.26;57.36
31121;BME280;17770;45.966;13.632;2022-10-31T04:46:49;101101.09;;;21.24;57.17
31121;BME280;17770;45.966;13.632;2022-10-31T04:49:15;101102.84;;;21.24;57.16
31121;BME280;17770;45.966;13.632;2022-10-31T04:51:42;101101.28;;;21.21;57.34
31121;BME280;17770;45.966;13.632;2022-10-31T04:54:08;101096.78;;;21.23;57.41
31121;BME280;17770;45.966;13.632;2022-10-31T04:56:54;101103.72;;;21.24;57.31
31121;BME280;17770;45.966;13.632;2022-10-31T05:01:52;101102.03;;;21.23;57.36
31121;BME280;17770;45.966;13.632;2022-10-31T05:04:24;101105.56;;;21.22;57.05
31121;BME280;17770;45.966;13.632;2022-10-31T05:06:51;101104.75;;;21.22;57.19
31121;BME280;17770;45.966;13.632;2022-10-31T05:09:17;101100.44;;;21.21;57.08
31121;BME280;17770;45.966;13.632;2022-10-31T05:11:42;101107.38;;;21.22;57.27
31121;BME280;17770;45.966;13.632;2022-10-31T05:14:31;101096.03;;;21.21;57.20
31121;BME280;17770;45.966;13.632;2022-10-31T05:17:15;101096.88;;;21.22;57.35
31121;BME280;17770;45.966;13.632;2022-10-31T05:20:04;101100.34;;;21.22;57.06
31121;BME280;17770;45.966;13.632;2022-10-31T05:22:49;101101.28;;;21.21;57.15
31121;BME280;17770;45.966;13.632;2022-10-31T05:25:16;101103.91;;;21.21;57.26
31121;BME280;17770;45.966;13.632;2022-10-31T05:27:43;101104.84;;;21.20;57.38
31121;BME280;17770;45.966;13.632;2022-10-31T05:30:10;101103.16;;;21.19;57.23
31121;BME280;17770;45.966;13.632;2022-10-31T05:32:40;101103.16;;;21.19;57.16
31121;BME280;17770;45.966;13.632;2022-10-31T05:35:27;101106.72;;;21.18;57.11
31121;BME280;17770;45.966;13.632;2022-10-31T05:38:25;101100.53;;;21.19;56.83
31121;BME280;17770;45.966;13.632;2022-10-31T05:40:55;101108.50;;;21.18;56.86
31121;BME280;17770;45.966;13.632;2022-10-31T05:43:27;101102.34;;;21.19;56.86
31121;BME280;17770;45.966;13.632;2022-10-31T05:45:54;101101.47;;;21.18;57.33
31121;BME280;17770;45.966;13.632;2022-10-31T05:48:40;101106.81;;;21.17;57.18
31121;BME280;17770;45.966;13.632;2022-10-31T05:51:24;101111.22;;;21.16;57.10
31121;BME280;17770;45.966;13.632;2022-10-31T05:53:50;101105.88;;;21.18;57.06
31121;BME280;17770;45.966;13.632;2022-10-31T05:56:16;101110.25;;;21.17;56.99
31121;BME280;17770;45.966;13.632;2022-10-31T05:58:42;101109.44;;;21.17;56.86
31121;BME280;17770;45.966;13.632;2022-10-31T06:01:08;101112.16;;;21.15;57.19
31121;BME280;17770;45.966;13.632;2022-10-31T06:03:34;101112.16;;;21.15;57.14
31121;BME280;17770;45.966;13.632;2022-10-31T06:06:02;101115.72;;;21.14;57.17
31121;BME280;17770;45.966;13.632;2022-10-31T06:08:35;101111.31;;;21.15;57.08
31121;BME280;17770;45.966;13.632;2022-10-31T06:11:04;101114.03;;;21.13;56.76
31121;BME280;17770;45.966;13.632;2022-10-31T06:13:50;101119.28;;;21.13;57.26
31121;BME280;17770;45.966;13.632;2022-10-31T06:16:22;101123.56;;;21.14;57.13
31121;BME280;17770;45.966;13.632;2022-10-31T06:18:49;101122.66;;;21.15;57.33
31121;BME280;17770;45.966;13.632;2022-10-31T06:21:15;101126.19;;;21.14;57.41
31121;BME280;17770;45.966;13.632;2022-10-31T06:23:41;101126.19;;;21.14;57.43
31121;BME280;17770;45.966;13.632;2022-10-31T06:26:24;101127.16;;;21.13;56.99
31121;BME280;17770;45.966;13.632;2022-10-31T06:28:49;101128.81;;;21.14;57.00
31121;BME280;17770;45.966;13.632;2022-10-31T06:31:40;101137.63;;;21.13;57.27
31121;BME280;17770;45.966;13.632;2022-10-31T06:34:06;101128.06;;;21.12;57.00
31121;BME280;17770;45.966;13.632;2022-10-31T06:36:32;101133.31;;;21.12;57.28
31121;BME280;17770;45.966;13.632;2022-10-31T06:38:58;101138.66;;;21.11;57.07
31121;BME280;17770;45.966;13.632;2022-10-31T06:41:26;101136.13;;;21.09;57.25
31121;BME280;17770;45.966;13.632;2022-10-31T06:43:53;101129.97;;;21.10;57.29
31121;BME280;17770;45.966;13.632;2022-10-31T06:46:37;101137.16;;;21.07;56.94
31121;BME280;17770;45.966;13.632;2022-10-31T06:49:26;101143.28;;;21.07;57.30
31121;BME280;17770;45.966;13.632;2022-10-31T06:51:53;101151.13;;;21.07;57.02
31121;BME280;17770;45.966;13.632;2022-10-31T06:54:20;101144.09;;;21.08;57.27
31121;BME280;17770;45.966;13.632;2022-10-31T06:56:47;101150.28;;;21.07;57.08
31121;BME280;17770;45.966;13.632;2022-10-31T06:59:13;101156.38;;;21.07;56.99
31121;BME280;17770;45.966;13.632;2022-10-31T07:02:02;101154.69;;;21.06;57.00
31121;BME280;17770;45.966;13.632;2022-10-31T07:04:28;101157.31;;;21.06;56.86
31121;BME280;17770;45.966;13.632;2022-10-31T07:06:54;101155.44;;;21.08;57.16
31121;BME280;17770;45.966;13.632;2022-10-31T07:09:20;101160.69;;;21.08;57.36
31121;BME280;17770;45.966;13.632;2022-10-31T07:11:47;101155.44;;;21.08;56.95
31121;BME280;17770;45.966;13.632;2022-10-31T07:14:13;101156.38;;;21.07;57.11
31121;BME280;17770;45.966;13.632;2022-10-31T07:16:39;101162.56;;;21.06;56.82
31121;BME280;17770;45.966;13.632;2022-10-31T07:19:06;101164.41;;;21.04;56.97
31121;BME280;17770;45.966;13.632;2022-10-31T07:21:32;101161.88;;;21.03;57.11
31121;BME280;17770;45.966;13.632;2022-10-31T07:23:58;101167.13;;;21.03;57.26
31121;BME280;17770;45.966;13.632;2022-10-31T07:26:39;101163.59;;;21.04;56.94
31121;BME280;17770;45.966;13.632;2022-10-31T07:29:05;101166.31;;;21.02;56.89
31121;BME280;17770;45.966;13.632;2022-10-31T07:31:31;101168.94;;;21.02;56.96
31121;BME280;17770;45.966;13.632;2022-10-31T07:34:02;101169.75;;;21.03;57.18
31121;BME280;17770;45.966;13.632;2022-10-31T07:36:50;101167.22;;;21.01;57.21
31121;BME280;17770;45.966;13.632;2022-10-31T07:39:16;101155.88;;;21.01;57.14
31121;BME280;17770;45.966;13.632;2022-10-31T07:41:43;101166.31;;;21.02;57.22
31121;BME280;17770;45.966;13.632;2022-10-31T07:44:09;101159.34;;;21.01;56.94
31121;BME280;17770;45.966;13.632;2022-10-31T07:46:55;101167.31;;;21.00;56.98
31121;BME280;17770;45.966;13.632;2022-10-31T07:49:41;101165.47;;;21.02;56.82
31121;BME280;17770;45.966;13.632;2022-10-31T07:52:27;101168.16;;;21.00;57.37
31121;BME280;17770;45.966;13.632;2022-10-31T07:55:18;101165.56;;;21.00;56.88
31121;BME280;17770;45.966;13.632;2022-10-31T07:57:54;101168.09;;;21.02;57.08
31121;BME280;17770;45.966;13.632;2022-10-31T08:00:20;101169.66;;;21.04;57.42
31121;BME280;17770;45.966;13.632;2022-10-31T08:02:55;101167.03;;;21.04;56.95
31121;BME280;17770;45.966;13.632;2022-10-31T08:05:47;101163.50;;;21.05;57.55
31121;BME280;17770;45.966;13.632;2022-10-31T08:08:31;101165.16;;;21.06;57.19
31121;BME280;17770;45.966;13.632;2022-10-31T08:10:57;101160.88;;;21.05;57.63
31121;BME280;17770;45.966;13.632;2022-10-31T08:13:24;101160.78;;;21.07;57.41
31121;BME280;17770;45.966;13.632;2022-10-31T08:15:50;101164.97;;;21.09;57.51
31121;BME280;17770;45.966;13.632;2022-10-31T08:18:22;101164.16;;;21.09;57.22
31121;BME280;17770;45.966;13.632;2022-10-31T08:20:49;101163.31;;;21.08;57.36
31121;BME280;17770;45.966;13.632;2022-10-31T08:23:15;101164.25;;;21.07;57.12
31121;BME280;17770;45.966;13.632;2022-10-31T08:25:42;101159.00;;;21.07;57.06
31121;BME280;17770;45.966;13.632;2022-10-31T08:28:09;101157.22;;;21.08;57.26
31121;BME280;17770;45.966;13.632;2022-10-31T08:30:36;101162.56;;;21.06;57.01
31121;BME280;17770;45.966;13.632;2022-10-31T08:33:26;101159.00;;;21.07;57.27
31121;BME280;17770;45.966;13.632;2022-10-31T08:36:18;101156.38;;;21.07;57.06
31121;BME280;17770;45.966;13.632;2022-10-31T08:38:59;101152.72;;;21.10;56.82
31121;BME280;17770;45.966;13.632;2022-10-31T08:41:26;101154.50;;;21.09;57.16
31121;BME280;17770;45.966;13.632;2022-10-31T08:43:52;101155.53;;;21.07;57.04
31121;BME280;17770;45.966;13.632;2022-10-31T08:46:18;101159.75;;;21.09;57.15
31121;BME280;17770;45.966;13.632;2022-10-31T08:48:44;101161.44;;;21.10;57.16
31121;BME280;17770;45.966;13.632;2022-10-31T08:51:12;101157.13;;;21.09;56.92
31121;BME280;17770;45.966;13.632;2022-10-31T08:53:38;101157.22;;;21.08;57.16
31121;BME280;17770;45.966;13.632;2022-10-31T08:56:24;101162.25;;;21.11;57.20
31121;BME280;17770;45.966;13.632;2022-10-31T08:58:52;101164.78;;;21.12;56.99
31121;BME280;17770;45.966;13.632;2022-10-31T09:01:23;101161.34;;;21.12;56.81
31121;BME280;17770;45.966;13.632;2022-10-31T09:03:49;101159.53;;;21.12;57.11
31121;BME280;17770;45.966;13.632;2022-10-31T09:06:15;101173.31;;;21.16;56.87
31121;BME280;17770;45.966;13.632;2022-10-31T09:08:41;101162.75;;;21.17;56.81
31121;BME280;17770;45.966;13.632;2022-10-31T09:11:07;101159.28;;;21.17;56.89
31121;BME280;17770;45.966;13.632;2022-10-31T09:13:52;101168.09;;;21.16;57.03
31121;BME280;17770;45.966;13.632;2022-10-31T09:16:26;101176.03;;;21.14;56.71
31121;BME280;17770;45.966;13.632;2022-10-31T09:18:53;101166.31;;;21.16;56.75
31121;BME280;17770;45.966;13.632;2022-10-31T09:21:19;101166.31;;;21.16;56.59
31121;BME280;17770;45.966;13.632;2022-10-31T09:23:46;101171.56;;;21.16;56.69
31121;BME280;17770;45.966;13.632;2022-10-31T09:26:12;101172.59;;;21.14;56.89
31121;BME280;17770;45.966;13.632;2022-10-31T09:28:42;101168.19;;;21.14;56.81
31121;BME280;17770;45.966;13.632;2022-10-31T09:31:14;101157.97;;;21.10;56.74
31121;BME280;17770;45.966;13.632;2022-10-31T09:33:54;101168.38;;;21.11;56.43
31121;BME280;17770;45.966;13.632;2022-10-31T09:36:43;101164.72;;;21.14;56.39
31121;BME280;17770;45.966;13.632;2022-10-31T09:39:27;101165.47;;;21.16;56.22
31121;BME280;17770;45.966;13.632;2022-10-31T09:47:23;101157.59;;;21.16;56.08
31121;BME280;17770;45.966;13.632;2022-10-31T09:52:41;101165.47;;;21.16;56.33
31121;BME280;17770;45.966;13.632;2022-10-31T09:55:18;101168.09;;;21.16;56.38
31121;BME280;17770;45.966;13.632;2022-10-31T09:57:45;101162.00;;;21.15;56.42
31121;BME280;17770;45.966;13.632;2022-10-31T10:00:19;101163.69;;;21.16;56.55
31121;BME280;17770;45.966;13.632;2022-10-31T10:03:07;101164.63;;;21.15;56.39
31121;BME280;17770;45.966;13.632;2022-10-31T10:08:18;101164.34;;;21.20;56.47
31121;BME280;17770;45.966;13.632;2022-10-31T10:26:43;101153.22;;;21.30;55.90
31121;BME280;17770;45.966;13.632;2022-10-31T10:31:41;101157.31;;;21.34;56.00
31121;BME280;17770;45.966;13.632;2022-10-31T10:36:38;101156.41;;;21.35;55.99
31121;BME280;17770;45.966;13.632;2022-10-31T10:39:50;101161.38;;;21.40;55.90
31121;BME280;17770;45.966;13.632;2022-10-31T10:41:55;101154.41;;;21.39;55.91
31121;BME280;17770;45.966;13.632;2022-10-31T10:44:40;101153.41;;;21.41;56.13
31121;BME280;17770;45.966;13.632;2022-10-31T10:47:27;101152.44;;;21.42;55.86
31121;BME280;17770;45.966;13.632;2022-10-31T10:50:15;101155.81;;;21.44;55.93
31121;BME280;17770;45.966;13.632;2022-10-31T11:00:19;101145.97;;;21.48;55.92
31121;BME280;17770;45.966;13.632;2022-10-31T11:02:45;101147.56;;;21.50;56.15
31121;BME280;17770;45.966;13.632;2022-10-31T11:08:04;101138.75;;;21.51;56.09
31121;BME280;17770;45.966;13.632;2022-10-31T11:10:30;101138.66;;;21.53;56.43
31121;BME280;17770;45.966;13.632;2022-10-31T11:12:58;101148.22;;;21.54;56.18
31121;BME280;17770;45.966;13.632;2022-10-31T11:15:24;101140.25;;;21.55;56.23
31121;BME280;17770;45.966;13.632;2022-10-31T11:17:52;101139.31;;;21.56;55.96
31121;BME280;17770;45.966;13.632;2022-10-31T11:22:46;101131.44;;;21.56;56.43
31121;BME280;17770;45.966;13.632;2022-10-31T11:27:44;101130.19;;;21.62;55.94
31121;BME280;17770;45.966;13.632;2022-10-31T11:30:11;101131.81;;;21.64;55.97
31121;BME280;17770;45.966;13.632;2022-10-31T11:32:39;101121.41;;;21.63;56.35
31121;BME280;17770;45.966;13.632;2022-10-31T11:35:09;101124.69;;;21.66;55.93
31121;BME280;17770;45.966;13.632;2022-10-31T11:37:39;101125.34;;;21.70;56.23
31121;BME280;17770;45.966;13.632;2022-10-31T11:40:14;101124.47;;;21.69;56.16
31121;BME280;17770;45.966;13.632;2022-10-31T11:42:41;101128.69;;;21.72;55.91
31121;BME280;17770;45.966;13.632;2022-10-31T11:45:30;101119.88;;;21.73;55.97
31121;BME280;17770;45.966;13.632;2022-10-31T11:47:54;101121.75;;;21.71;55.87
31121;BME280;17770;45.966;13.632;2022-10-31T11:50:55;101119.03;;;21.72;55.85
31121;BME280;17770;45.966;13.632;2022-10-31T11:56:14;101116.22;;;21.75;55.59
31121;BME280;17770;45.966;13.632;2022-10-31T11:58:41;101111.91;;;21.74;55.98
31121;BME280;17770;45.966;13.632;2022-10-31T12:01:21;101102.91;;;21.78;56.06
31121;BME280;17770;45.966;13.632;2022-10-31T12:06:32;101095.69;;;21.82;55.82
31121;BME280;17770;45.966;13.632;2022-10-31T12:08:59;101098.19;;;21.83;56.25
31121;BME280;17770;45.966;13.632;2022-10-31T12:11:35;101096.22;;;21.87;56.25
31121;BME280;17770;45.966;13.632;2022-10-31T12:16:42;101090.88;;;21.88;56.43
31121;BME280;17770;45.966;13.632;2022-10-31T12:22:01;101090.66;;;21.91;56.56
31121;BME280;17770;45.966;13.632;2022-10-31T12:27:30;101086.06;;;21.95;56.44
31121;BME280;17770;45.966;13.632;2022-10-31T12:52:26;101065.84;;;22.10;57.33
31121;BME280;17770;45.966;13.632;2022-10-31T12:57:39;101072.56;;;22.14;57.48
31121;BME280;17770;45.966;13.632;2022-10-31T13:02:35;101072.25;;;22.18;57.63
31121;BME280;17770;45.966;13.632;2022-10-31T13:05:10;101064.28;;;22.20;57.87
31121;BME280;17770;45.966;13.632;2022-10-31T13:07:38;101071.25;;;22.21;58.49
31121;BME280;17770;45.966;13.632;2022-10-31T13:12:38;101064.81;;;22.25;58.14
31121;BME280;17770;45.966;13.632;2022-10-31T13:15:12;101062.94;;;22.27;58.25
31121;BME280;17770;45.966;13.632;2022-10-31T13:17:40;101050.53;;;22.29;58.55
31121;BME280;17770;45.966;13.632;2022-10-31T13:20:21;101064.44;;;22.31;58.32
31121;BME280;17770;45.966;13.632;2022-10-31T13:22:53;101054.75;;;22.31;58.88
31121;BME280;17770;45.966;13.632;2022-10-31T13:25:22;101052.84;;;22.33;58.50
31121;BME280;17770;45.966;13.632;2022-10-31T13:27:59;101050.13;;;22.35;58.41
31121;BME280;17770;45.966;13.632;2022-10-31T13:30:27;101058.75;;;22.37;58.68
31121;BME280;17770;45.966;13.632;2022-10-31T13:33:14;101051.59;;;22.39;58.62
31121;BME280;17770;45.966;13.632;2022-10-31T13:38:32;101046.16;;;22.42;59.42
31121;BME280;17770;45.966;13.632;2022-10-31T13:45:58;101047.75;;;22.44;58.72
31121;BME280;17770;45.966;13.632;2022-10-31T13:50:57;101038.78;;;22.47;58.41
31121;BME280;17770;45.966;13.632;2022-10-31T13:53:34;101034.28;;;22.49;58.70
31121;BME280;17770;45.966;13.632;2022-10-31T13:58:36;101040.38;;;22.49;58.65
31121;BME280;17770;45.966;13.632;2022-10-31T14:03:28;101046.09;;;22.56;59.50
31121;BME280;17770;45.966;13.632;2022-10-31T14:05:54;101045.13;;;22.57;59.88
31121;BME280;17770;45.966;13.632;2022-10-31T14:08:21;101037.16;;;22.58;59.14
31121;BME280;17770;45.966;13.632;2022-10-31T14:10:52;101036.28;;;22.58;59.83
31121;BME280;17770;45.966;13.632;2022-10-31T14:13:33;101036.19;;;22.59;59.81
31121;BME280;17770;45.966;13.632;2022-10-31T14:16:04;101036.09;;;22.61;59.62
31121;BME280;17770;45.966;13.632;2022-10-31T14:18:32;101038.63;;;22.62;59.09
31121;BME280;17770;45.966;13.632;2022-10-31T14:20:58;101035.03;;;22.63;60.20
31121;BME280;17770;45.966;13.632;2022-10-31T14:28:42;101028.75;;;22.66;59.87
31121;BME280;17770;45.966;13.632;2022-10-31T14:33:53;101022.63;;;22.65;59.22
31121;BME280;17770;45.966;13.632;2022-10-31T14:36:25;101027.91;;;22.65;59.76
31121;BME280;17770;45.966;13.632;2022-10-31T14:39:08;101029.47;;;22.68;59.71
31121;BME280;17770;45.966;13.632;2022-10-31T14:41:41;101032.09;;;22.68;60.08
31121;BME280;17770;45.966;13.632;2022-10-31T14:44:31;101031.97;;;22.69;59.74
31121;BME280;17770;45.966;13.632;2022-10-31T14:52:11;101038.84;;;22.72;59.38
31121;BME280;17770;45.966;13.632;2022-10-31T14:54:38;101028.31;;;22.72;59.34
31121;BME280;17770;45.966;13.632;2022-10-31T14:57:06;101031.69;;;22.74;59.36
31121;BME280;17770;45.966;13.632;2022-10-31T14:59:35;101036.00;;;22.75;59.36
31121;BME280;17770;45.966;13.632;2022-10-31T15:04:40;101030.84;;;22.73;59.42
31121;BME280;17770;45.966;13.632;2022-10-31T15:07:09;101035.88;;;22.76;59.78
31121;BME280;17770;45.966;13.632;2022-10-31T15:09:36;101035.88;;;22.76;59.47
31121;BME280;17770;45.966;13.632;2022-10-31T15:12:25;101037.66;;;22.76;59.44
31121;BME280;17770;45.966;13.632;2022-10-31T15:14:51;101039.25;;;22.78;58.79
31121;BME280;17770;45.966;13.632;2022-10-31T15:17:18;101034.94;;;22.77;58.98
31121;BME280;17770;45.966;13.632;2022-10-31T15:19:43;101041.88;;;22.78;59.34
31121;BME280;17770;45.966;13.632;2022-10-31T15:22:10;101042.72;;;22.79;59.14
31121;BME280;17770;45.966;13.632;2022-10-31T15:24:39;101040.22;;;22.77;59.15
31121;BME280;17770;45.966;13.632;2022-10-31T15:27:14;101039.16;;;22.80;59.18
31121;BME280;17770;45.966;13.632;2022-10-31T15:29:50;101035.78;;;22.78;59.00
31121;BME280;17770;45.966;13.632;2022-10-31T15:32:20;101032.31;;;22.77;58.74
31121;BME280;17770;45.966;13.632;2022-10-31T15:34:48;101037.59;;;22.77;58.88
31121;BME280;17770;45.966;13.632;2022-10-31T15:37:18;101041.03;;;22.78;58.97
31121;BME280;17770;45.966;13.632;2022-10-31T15:39:45;101032.31;;;22.77;58.62
31121;BME280;17770;45.966;13.632;2022-10-31T15:42:25;101035.88;;;22.76;58.51